createdAt,value
2018-06-04T00:01:44.412Z,97751.00
2018-06-04T00:04:21.838Z,97749.00
2018-06-04T00:07:01.179Z,97746.00
2018-06-04T00:09:38.335Z,97747.00
2018-06-04T00:12:18.440Z,97744.00
2018-06-04T00:14:57.400Z,97745.00
2018-06-04T00:17:35.891Z,97754.00
2018-06-04T00:20:16.554Z,97748.00
2018-06-04T00:22:54.897Z,97744.00
2018-06-04T00:25:34.117Z,97740.00
2018-06-04T00:28:13.535Z,97739.00
2018-06-04T00:30:52.773Z,97733.00
2018-06-04T00:33:32.338Z,97736.00
2018-06-04T00:36:10.771Z,97734.00
2018-06-04T00:38:48.954Z,97735.00
2018-06-04T00:41:27.897Z,97731.00
2018-06-04T00:44:07.139Z,97729.00
2018-06-04T00:46:45.999Z,97721.00
2018-06-04T00:49:25.272Z,97722.00
2018-06-04T00:52:04.150Z,97721.00
2018-06-04T00:54:43.249Z,97716.00
2018-06-04T00:57:23.391Z,97716.00
2018-06-04T01:00:01.815Z,97716.00
2018-06-04T01:02:41.638Z,97714.00
2018-06-04T01:05:21.235Z,97716.00
2018-06-04T01:08:01.330Z,97715.00
2018-06-04T01:10:39.932Z,97718.00
2018-06-04T01:13:21.411Z,97712.00
2018-06-04T01:16:00.036Z,97701.00
2018-06-04T01:18:38.381Z,97703.00
2018-06-04T01:21:16.852Z,97701.00
2018-06-04T01:23:55.693Z,97703.00
2018-06-04T01:26:34.236Z,97696.00
2018-06-04T01:29:13.519Z,97697.00
2018-06-04T01:31:52.475Z,97697.00
2018-06-04T01:34:32.253Z,97692.00
2018-06-04T01:37:11.574Z,97699.00
2018-06-04T01:39:50.254Z,97697.00
2018-06-04T01:42:31.055Z,97695.00
2018-06-04T01:45:09.850Z,97696.00
2018-06-04T01:47:47.954Z,97687.00
2018-06-04T01:50:26.233Z,97685.00
2018-06-04T01:53:06.178Z,97688.00
2018-06-04T01:55:45.058Z,97687.00
2018-06-04T03:06:38.563Z,97663.00
2018-06-04T03:09:17.761Z,97657.00
2018-06-04T03:12:02.000Z,97657.00
2018-06-04T03:14:42.105Z,97652.00
2018-06-04T03:17:21.524Z,97651.00
2018-06-04T03:20:00.860Z,97650.00
2018-06-04T03:22:40.860Z,97657.00
2018-06-04T03:25:21.023Z,97663.00
2018-06-04T03:27:59.243Z,97660.00
2018-06-04T03:30:37.803Z,97666.00
2018-06-04T03:33:19.726Z,97662.00
2018-06-04T03:35:59.760Z,97670.00
2018-06-04T03:38:41.825Z,97673.00
2018-06-04T03:41:21.942Z,97673.00
2018-06-04T03:44:02.169Z,97676.00
2018-06-04T03:46:41.266Z,97674.00
2018-06-04T03:49:23.746Z,97681.00
2018-06-04T03:52:02.780Z,97676.00
2018-06-04T03:54:44.599Z,97679.00
2018-06-04T03:57:28.064Z,97675.00
2018-06-04T04:00:09.978Z,97675.00
2018-06-04T04:02:49.611Z,97675.00
2018-06-04T04:05:29.762Z,97675.00
2018-06-04T04:08:08.818Z,97679.00
2018-06-04T05:22:12.047Z,97675.00
2018-06-04T05:24:54.624Z,97675.00
2018-06-04T05:27:34.987Z,97671.00
2018-06-04T05:30:16.529Z,97669.00
2018-06-04T05:33:00.381Z,97666.00
2018-06-04T05:35:49.624Z,97661.00
2018-06-04T05:38:31.850Z,97656.00
2018-06-04T05:41:17.103Z,97655.00
2018-06-04T05:43:59.926Z,97657.00
2018-06-04T05:46:38.703Z,97656.00
2018-06-04T05:49:20.101Z,97655.00
2018-06-04T05:51:58.589Z,97659.00
2018-06-04T05:54:38.546Z,97659.00
2018-06-04T05:57:17.224Z,97653.00
2018-06-04T05:59:59.790Z,97648.00
2018-06-04T06:02:42.267Z,97650.00
2018-06-04T06:05:28.111Z,97649.00
2018-06-04T06:08:09.270Z,97647.00
2018-06-04T06:10:49.965Z,97642.00
2018-06-04T06:13:30.548Z,97642.00
2018-06-04T06:16:12.753Z,97638.00
2018-06-04T06:18:50.768Z,97638.00
2018-06-04T06:21:28.231Z,97633.00
2018-06-04T06:24:09.488Z,97635.00
2018-06-04T06:26:48.747Z,97634.00
2018-06-04T06:29:28.044Z,97630.00
2018-06-04T06:32:06.988Z,97640.00
2018-06-04T06:34:45.986Z,97627.00
2018-06-04T06:37:25.323Z,97627.00
2018-06-04T06:40:05.649Z,97628.00
2018-06-04T06:42:47.207Z,97625.00
2018-06-04T06:45:27.024Z,97625.00
2018-06-04T06:48:08.031Z,97621.00
2018-06-04T06:50:49.276Z,97620.00
2018-06-04T06:53:28.384Z,97615.00
2018-06-04T06:56:10.087Z,97618.00
2018-06-04T06:58:52.166Z,97610.00
2018-06-04T07:01:30.971Z,97607.00
2018-06-04T07:04:09.567Z,97603.00
2018-06-04T07:06:54.747Z,97597.00
2018-06-04T07:09:33.791Z,97588.00
2018-06-04T07:12:12.104Z,97589.00
2018-06-04T07:14:52.823Z,97587.00
2018-06-04T07:17:34.072Z,97580.00
2018-06-04T07:20:14.866Z,97574.00
2018-06-04T07:22:55.608Z,97573.00
2018-06-04T07:25:41.988Z,97571.00
2018-06-04T07:28:22.522Z,97567.00
2018-06-04T07:31:03.315Z,97558.00
2018-06-04T07:33:44.128Z,97559.00
2018-06-04T07:36:28.926Z,97554.00
2018-06-04T07:39:12.568Z,97549.00
2018-06-04T07:41:51.008Z,97544.00
2018-06-04T07:44:32.494Z,97540.00
2018-06-04T07:47:20.110Z,97538.00
2018-06-04T07:49:58.294Z,97532.00
2018-06-04T07:52:37.126Z,97531.00
2018-06-04T07:55:19.933Z,97529.00
2018-06-04T07:58:00.667Z,97527.00
2018-06-04T08:00:45.691Z,97523.00
2018-06-04T08:03:23.984Z,97531.00
2018-06-04T08:06:03.745Z,97525.00
2018-06-04T08:08:43.243Z,97524.00
2018-06-04T08:11:23.130Z,97519.00
2018-06-04T08:14:01.452Z,97518.00
2018-06-04T08:16:39.786Z,97505.00
2018-06-04T08:19:19.062Z,97505.00
2018-06-04T08:22:01.090Z,97494.00
2018-06-04T08:24:40.974Z,97496.00
2018-06-04T08:27:19.884Z,97503.00
2018-06-04T08:30:08.511Z,97509.00
2018-06-04T08:32:46.523Z,97505.00
2018-06-04T08:35:24.547Z,97507.00
2018-06-04T08:38:02.545Z,97512.00
2018-06-04T08:40:41.587Z,97513.00
2018-06-04T08:43:26.484Z,97519.00
2018-06-04T08:46:05.194Z,97511.00
2018-06-04T08:48:49.070Z,97509.00
2018-06-04T08:51:31.667Z,97506.00
2018-06-04T08:54:16.128Z,97507.00
2018-06-04T08:56:58.550Z,97506.00
2018-06-04T08:59:48.868Z,97501.00
2018-06-04T09:02:30.487Z,97506.00
2018-06-04T09:05:15.550Z,97503.00
2018-06-04T09:07:55.652Z,97500.00
2018-06-04T09:10:38.413Z,97495.00
2018-06-04T09:13:21.845Z,97496.00
2018-06-04T09:16:01.407Z,97487.00
2018-06-04T09:18:43.029Z,97485.00
2018-06-04T09:21:24.807Z,97495.00
2018-06-04T09:24:01.764Z,97495.00
2018-06-04T09:26:42.708Z,97492.00
2018-06-04T09:29:24.107Z,97492.00
2018-06-04T09:32:04.448Z,97493.00
2018-06-04T09:34:42.986Z,97486.00
2018-06-04T09:37:25.465Z,97490.00
2018-06-04T09:40:08.452Z,97488.00
2018-06-04T09:42:55.729Z,97489.00
2018-06-04T09:45:35.691Z,97485.00
2018-06-04T09:48:17.154Z,97475.00
2018-06-04T09:50:59.228Z,97476.00
2018-06-04T09:53:43.585Z,97480.00
2018-06-04T09:56:23.829Z,97482.00
2018-06-04T09:59:06.889Z,97481.00
2018-06-04T10:01:50.244Z,97476.00
2018-06-04T10:04:31.448Z,97477.00
2018-06-04T10:07:12.572Z,97471.00
2018-06-04T10:09:50.480Z,97476.00
2018-06-04T10:12:36.004Z,97474.00
2018-06-04T10:15:18.324Z,97474.00
2018-06-04T10:17:56.869Z,97469.00
2018-06-04T10:20:37.582Z,97473.00
2018-06-04T10:23:16.511Z,97470.00
2018-06-04T10:26:04.327Z,97464.00
2018-06-04T10:28:45.488Z,97463.00
2018-06-04T10:31:30.443Z,97463.00
2018-06-04T10:34:15.205Z,97465.00
2018-06-04T10:37:00.107Z,97458.00
2018-06-04T10:39:38.388Z,97456.00
2018-06-04T10:42:21.784Z,97458.00
2018-06-04T10:45:10.045Z,97457.00
2018-06-04T10:47:53.046Z,97456.00
2018-06-04T10:50:35.208Z,97448.00
2018-06-04T10:53:20.363Z,97443.00
2018-06-04T10:56:01.447Z,97451.00
2018-06-04T10:58:42.905Z,97443.00
2018-06-04T11:01:23.525Z,97431.00
2018-06-04T11:04:01.705Z,97430.00
2018-06-04T11:06:45.006Z,97424.00
2018-06-04T11:09:23.264Z,97421.00
2018-06-04T11:12:02.769Z,97416.00
2018-06-04T11:14:42.906Z,97414.00
2018-06-04T11:17:25.750Z,97408.00
2018-06-04T11:20:10.548Z,97407.00
2018-06-04T11:22:50.090Z,97407.00
2018-06-04T11:25:34.989Z,97399.00
2018-06-04T11:28:14.031Z,97399.00
2018-06-04T11:30:52.027Z,97391.00
2018-06-04T12:50:53.394Z,97288.00
2018-06-04T12:53:36.240Z,97281.00
2018-06-04T12:56:17.259Z,97279.00
2018-06-04T12:58:55.896Z,97282.00
2018-06-04T13:01:40.052Z,97279.00
2018-06-04T13:04:21.458Z,97276.00
2018-06-04T13:07:01.632Z,97274.00
2018-06-04T13:09:44.939Z,97274.00
2018-06-04T13:12:24.452Z,97266.00
2018-06-04T13:15:06.335Z,97271.00
2018-06-04T13:17:45.250Z,97266.00
2018-06-04T13:20:32.278Z,97270.00
2018-06-04T13:23:11.532Z,97274.00
2018-06-04T13:25:51.790Z,97271.00
2018-06-04T14:58:04.569Z,97154.00
2018-06-04T15:00:46.840Z,97143.00
2018-06-04T15:03:32.495Z,97143.00
2018-06-04T15:06:11.080Z,97141.00
2018-06-04T15:08:52.358Z,97141.00
2018-06-04T15:11:29.854Z,97143.00
2018-06-04T15:14:11.979Z,97134.00
2018-06-04T15:16:53.759Z,97136.00
2018-06-04T15:19:34.632Z,97138.00
2018-06-04T15:22:18.913Z,97135.00
2018-06-04T15:24:59.836Z,97135.00
2018-06-04T16:39:04.427Z,97110.00
2018-06-04T16:41:44.747Z,97112.00
2018-06-04T16:44:24.800Z,97108.00
2018-06-04T16:47:06.602Z,97110.00
2018-06-04T16:49:47.461Z,97113.00
2018-06-04T16:52:25.962Z,97111.00
2018-06-04T16:55:12.460Z,97111.00
2018-06-04T16:57:54.805Z,97113.00
2018-06-04T17:00:40.142Z,97111.00
2018-06-04T17:03:17.758Z,97110.00
2018-06-04T17:06:06.379Z,97103.00
2018-06-04T17:08:47.782Z,97104.00
2018-06-04T17:11:29.383Z,97104.00
2018-06-04T17:14:19.365Z,97105.00
2018-06-04T17:16:57.461Z,97108.00
2018-06-04T17:19:38.505Z,97115.00
2018-06-04T17:22:22.757Z,97111.00
2018-06-04T17:25:03.002Z,97111.00
2018-06-04T17:27:46.120Z,97113.00
2018-06-04T17:30:25.720Z,97115.00
2018-06-04T17:33:07.881Z,97114.00
2018-06-04T17:35:50.867Z,97115.00
2018-06-04T17:38:32.579Z,97118.00
2018-06-04T17:41:10.490Z,97120.00
2018-06-04T17:43:48.119Z,97125.00
2018-06-04T17:46:30.044Z,97125.00
2018-06-04T19:03:46.248Z,97160.00
2018-06-04T19:06:32.446Z,97166.00
2018-06-04T19:09:17.476Z,97171.00
2018-06-04T19:11:58.337Z,97168.00
2018-06-04T19:14:40.739Z,97171.00
2018-06-04T20:43:58.041Z,97298.00
2018-06-04T20:46:36.455Z,97297.00
2018-06-04T20:49:14.853Z,97304.00
2018-06-04T20:51:52.404Z,97304.00
2018-06-04T20:54:31.354Z,97307.00
2018-06-04T20:57:11.394Z,97308.00
2018-06-04T20:59:49.571Z,97312.00
2018-06-04T21:02:32.275Z,97311.00
2018-06-04T21:05:11.651Z,97313.00
2018-06-04T21:07:51.732Z,97315.00
2018-06-04T21:10:31.793Z,97320.00
2018-06-04T21:13:09.773Z,97320.00
2018-06-04T21:15:49.233Z,97320.00
2018-06-04T21:18:28.795Z,97323.00
2018-06-04T21:21:07.435Z,97321.00
2018-06-04T21:23:45.954Z,97322.00
2018-06-04T21:26:22.953Z,97323.00
2018-06-04T21:29:02.014Z,97332.00
2018-06-04T21:31:43.457Z,97335.00
2018-06-04T21:34:23.679Z,97335.00
2018-06-04T21:37:01.234Z,97331.00
2018-06-04T21:39:40.234Z,97335.00
2018-06-04T21:42:19.134Z,97339.00
2018-06-04T21:44:59.576Z,97336.00
2018-06-04T21:47:36.755Z,97337.00
2018-06-04T22:33:03.772Z,97358.00
2018-06-04T22:35:42.171Z,97359.00
2018-06-04T22:38:23.138Z,97358.00
2018-06-04T22:41:02.449Z,97358.00
2018-06-04T22:43:41.175Z,97360.00
2018-06-04T22:46:20.815Z,97354.00
2018-06-04T22:48:59.470Z,97356.00
2018-06-04T22:51:38.230Z,97356.00
2018-06-04T22:54:17.798Z,97359.00
2018-06-04T22:56:57.737Z,97361.00
2018-06-04T22:59:37.180Z,97356.00
2018-06-04T23:02:16.690Z,97363.00
2018-06-04T23:04:56.771Z,97354.00
2018-06-04T23:07:39.701Z,97352.00
2018-06-04T23:10:16.793Z,97352.00
2018-06-04T23:12:58.674Z,97351.00
2018-06-04T23:15:38.735Z,97350.00
2018-06-04T23:18:17.633Z,97347.00
2018-06-04T23:20:56.291Z,97344.00
2018-06-04T23:23:35.511Z,97340.00
2018-06-04T23:26:14.773Z,97339.00
2018-06-04T23:28:55.715Z,97340.00
2018-06-04T23:31:35.633Z,97338.00
2018-06-04T23:34:14.335Z,97337.00
2018-06-04T23:36:52.900Z,97332.00
2018-06-04T23:39:30.013Z,97330.00
2018-06-04T23:42:10.540Z,97328.00
2018-06-04T23:44:48.392Z,97336.00
2018-06-04T23:47:27.633Z,97327.00
2018-06-04T23:50:07.629Z,97333.00
2018-06-04T23:52:47.016Z,97331.00
2018-06-04T23:55:27.334Z,97330.00
2018-06-04T23:58:06.772Z,97335.00
